Time;durP1;ratioP1;P1;durP2;ratioP2;P2;SDS_P1;SDS_P2;PMS_P1;PMS_P2;Temp;Humidity;BMP_temperature;BMP_pressure;BME280_temperature;BME280_humidity;BME280_pressure;Samples;Min_cycle;Max_cycle;Signal;HPM_P1;HPM_P2
2022/07/03 00:01:27;;;;;;;1.37;1.20;;;;;;;17.84;100.00;101821.06;5022509;28;20193;-70
2022/07/03 00:03:53;;;;;;;1.27;1.10;;;;;;;17.48;100.00;101748.53;5020869;28;20243;-70
2022/07/03 00:06:18;;;;;;;1.10;1.00;;;;;;;17.92;100.00;101808.28;5028560;22;20223;-67
2022/07/03 00:08:44;;;;;;;1.40;1.30;;;;;;;17.72;100.00;101770.44;5015818;28;20188;-67
2022/07/03 00:11:10;;;;;;;1.70;1.60;;;;;;;17.55;100.00;101753.91;5019344;28;20212;-67
2022/07/03 00:13:35;;;;;;;2.70;1.60;;;;;;;17.73;100.00;101789.19;5014729;28;20224;-67
2022/07/03 00:16:01;;;;;;;1.70;1.60;;;;;;;17.31;100.00;101695.94;5003775;28;20440;-67
2022/07/03 00:18:26;;;;;;;3.70;1.77;;;;;;;17.38;100.00;101719.19;5011664;28;20675;-67
2022/07/03 00:21:01;;;;;;;1.90;1.67;;;;;;;17.82;100.00;101804.19;5010847;28;20197;-67
2022/07/03 00:23:29;;;;;;;2.50;1.47;;;;;;;17.88;100.00;101796.19;5004543;28;20211;-67
2022/07/03 00:26:01;;;;;;;1.63;1.53;;;;;;;17.62;100.00;101773.66;5010637;28;20960;-67
2022/07/03 00:28:28;;;;;;;3.27;1.27;;;;;;;17.47;100.00;101749.56;5009789;28;20527;-67
2022/07/03 00:30:55;;;;;;;2.13;1.47;;;;;;;17.74;100.00;101793.59;5010491;28;20455;-67
2022/07/03 00:33:22;;;;;;;1.60;1.50;;;;;;;17.43;100.00;101748.38;5009197;28;20440;-67
2022/07/03 00:35:49;;;;;;;1.50;1.23;;;;;;;17.74;100.00;101798.19;5009311;28;20463;-67
2022/07/03 00:38:16;;;;;;;2.30;1.30;;;;;;;17.70;100.00;101792.34;5010299;28;20450;-67
2022/07/03 00:40:41;;;;;;;3.77;1.87;;;;;;;17.66;100.00;101777.59;5008298;28;20530;-68
2022/07/03 00:43:09;;;;;;;2.00;1.53;;;;;;;17.16;100.00;101690.84;5015166;28;20835;-68
2022/07/03 00:45:34;;;;;;;4.17;1.80;;;;;;;17.88;100.00;101798.91;5004682;28;20767;-67
2022/07/03 00:48:00;;;;;;;2.43;1.57;;;;;;;17.87;100.00;101795.34;5008011;28;20447;-68
2022/07/03 00:50:44;;;;;;;2.40;1.90;;;;;;;17.76;100.00;101801.47;5012590;28;20212;-67
2022/07/03 00:53:11;;;;;;;2.43;1.60;;;;;;;17.59;100.00;101769.53;5008316;28;20803;-67
2022/07/03 00:55:38;;;;;;;1.70;1.40;;;;;;;17.71;100.00;101787.78;5007255;28;20443;-67
2022/07/03 00:58:05;;;;;;;2.77;1.80;;;;;;;17.80;100.00;101792.72;5008514;28;20931;-67
2022/07/03 01:00:32;;;;;;;2.03;1.83;;;;;;;17.32;100.00;101716.56;5007545;28;20446;-67
2022/07/03 01:03:06;;;;;;;3.00;2.10;;;;;;;17.84;100.00;101784.94;5011111;28;20479;-67
2022/07/03 01:05:40;;;;;;;3.30;2.00;;;;;;;17.81;100.00;101783.50;5013164;28;20446;-67
2022/07/03 01:08:30;;;;;;;2.47;2.23;;;;;;;17.80;100.00;101775.63;4993445;28;20439;-68
2022/07/03 01:10:55;;;;;;;2.80;2.03;;;;;;;17.76;100.00;101780.63;5009877;28;20436;-67
2022/07/03 01:13:58;;;;;;;3.47;1.93;;;;;;;17.97;100.00;101778.56;5010537;28;20502;-67
2022/07/03 01:16:48;;;;;;;1.83;1.47;;;;;;;17.86;100.00;101779.31;5007911;28;20688;-67
2022/07/03 01:19:16;;;;;;;2.30;1.70;;;;;;;17.87;100.00;101767.41;5010127;28;20439;-67
2022/07/03 01:22:19;;;;;;;3.40;1.10;;;;;;;17.71;100.00;101766.06;5005602;28;20443;-68
2022/07/03 01:25:20;;;;;;;2.13;1.63;;;;;;;17.56;100.00;101766.41;5007200;28;20931;-68
2022/07/03 01:27:51;;;;;;;1.70;1.30;;;;;;;17.48;100.00;101769.41;5010211;28;20544;-67
2022/07/03 01:30:19;;;;;;;2.07;1.33;;;;;;;17.63;100.00;101767.19;5007267;28;20585;-67
2022/07/03 01:32:48;;;;;;;4.60;1.90;;;;;;;17.64;100.00;101766.13;5009538;28;20853;-67
2022/07/03 01:35:21;;;;;;;1.37;0.90;;;;;;;17.34;100.00;101753.25;5011848;28;20439;-67
2022/07/03 01:37:48;;;;;;;1.40;1.20;;;;;;;16.89;100.00;101709.19;5006069;28;20471;-67
2022/07/03 01:40:16;;;;;;;1.30;1.20;;;;;;;17.20;100.00;101770.66;5010283;28;20443;-68
2022/07/03 01:42:44;;;;;;;1.83;1.33;;;;;;;16.77;100.00;101719.06;5011720;28;20804;-67
2022/07/03 01:45:11;;;;;;;1.80;1.10;;;;;;;17.12;100.00;101773.66;5013516;28;20447;-68
2022/07/03 01:47:39;;;;;;;1.70;1.30;;;;;;;17.02;100.00;101771.44;5012100;28;20470;-68
2022/07/03 01:50:07;;;;;;;3.93;2.00;;;;;;;16.79;100.00;101730.53;5015239;28;21282;-67
2022/07/03 01:52:34;;;;;;;1.43;0.93;;;;;;;16.57;100.00;101714.56;5012945;28;20445;-67
2022/07/03 01:55:01;;;;;;;1.67;1.00;;;;;;;16.67;100.00;101733.06;5015381;28;20542;-67
2022/07/03 01:57:56;;;;;;;2.40;0.97;;;;;;;16.77;100.00;101759.69;5013872;28;20487;-67
2022/07/03 02:00:22;;;;;;;2.07;1.30;;;;;;;16.80;100.00;101751.97;4987351;28;20505;-67
2022/07/03 02:02:58;;;;;;;1.70;1.10;;;;;;;16.69;100.00;101764.31;5011921;28;20493;-67
2022/07/03 02:05:33;;;;;;;2.00;1.27;;;;;;;16.64;100.00;101756.00;5010362;28;20551;-67
2022/07/03 02:08:17;;;;;;;1.67;1.40;;;;;;;16.63;100.00;101757.03;5014228;28;20456;-67
2022/07/03 02:10:51;;;;;;;4.47;3.60;;;;;;;16.68;100.00;101761.81;5011404;28;20442;-67
2022/07/03 02:13:22;;;;;;;7.97;4.87;;;;;;;16.44;100.00;101720.91;5014293;28;20435;-67
2022/07/03 02:15:51;;;;;;;7.13;4.97;;;;;;;16.54;100.00;101742.06;5006958;28;20542;-67
2022/07/03 02:18:35;;;;;;;5.57;4.50;;;;;;;16.61;100.00;101753.72;5017237;28;20518;-67
2022/07/03 02:21:18;;;;;;;7.60;4.50;;;;;;;16.59;100.00;101742.25;5017777;28;20955;-67
2022/07/03 02:24:06;;;;;;;6.40;4.13;;;;;;;15.76;100.00;101656.44;5016225;28;20496;-67
2022/07/03 02:26:34;;;;;;;5.23;3.37;;;;;;;16.48;100.00;101753.78;4994929;28;20980;-67
2022/07/03 02:29:03;;;;;;;5.23;2.93;;;;;;;16.18;100.00;101707.50;5015956;28;20859;-67
2022/07/03 02:31:37;;;;;;;3.83;2.83;;;;;;;16.14;100.00;101700.81;5014109;28;20856;-67
2022/07/03 02:34:06;;;;;;;2.50;2.30;;;;;;;16.12;100.00;101711.06;5013884;28;20454;-67
2022/07/03 02:36:34;;;;;;;2.17;1.97;;;;;;;15.73;100.00;101667.66;5013920;28;20818;-67
2022/07/03 02:38:59;;;;;;;2.30;1.77;;;;;;;15.77;100.00;101668.94;5014150;28;20443;-67
2022/07/03 02:41:37;;;;;;;2.70;2.00;;;;;;;15.41;100.00;101636.13;5013965;28;20458;-68
2022/07/03 02:44:26;;;;;;;1.70;1.30;;;;;;;16.16;100.00;101748.28;5013990;28;20196;-67
2022/07/03 02:47:20;;;;;;;1.73;1.57;;;;;;;16.15;100.00;101756.63;5009278;28;20777;-67
2022/07/03 02:49:58;;;;;;;2.53;1.33;;;;;;;16.06;100.00;101728.16;5009643;28;20559;-67
2022/07/03 02:52:38;;;;;;;1.43;1.30;;;;;;;16.16;100.00;101751.00;5011759;28;20435;-68
2022/07/03 02:55:43;;;;;;;1.10;1.00;;;;;;;15.94;100.00;101755.88;4994803;28;20442;-67
2022/07/03 02:58:14;;;;;;;1.50;1.40;;;;;;;15.98;100.00;101758.97;5015375;28;20428;-67
2022/07/03 03:00:48;;;;;;;1.63;1.40;;;;;;;15.88;100.00;101751.31;5009501;28;20518;-67
2022/07/03 03:03:16;;;;;;;2.90;1.53;;;;;;;15.43;100.00;101697.03;5013895;28;20474;-67
2022/07/03 03:05:46;;;;;;;1.63;1.40;;;;;;;15.96;100.00;101761.06;5009577;28;20482;-67
2022/07/03 03:08:33;;;;;;;2.80;1.93;;;;;;;15.87;100.00;101760.44;5011303;28;20443;-67
2022/07/03 03:11:05;;;;;;;2.80;2.60;;;;;;;15.70;100.00;101726.78;5009751;28;20938;-67
2022/07/03 03:13:31;;;;;;;3.43;2.73;;;;;;;15.99;100.00;101747.91;5012965;28;20981;-67
2022/07/03 03:16:09;;;;;;;2.60;2.40;;;;;;;15.84;100.00;101749.22;5007566;28;20974;-67
2022/07/03 03:18:40;;;;;;;3.07;2.77;;;;;;;15.79;100.00;101744.44;5009835;28;20439;-67
2022/07/03 03:21:09;;;;;;;3.33;2.60;;;;;;;15.74;100.00;101744.25;5010028;28;20431;-67
2022/07/03 03:23:35;;;;;;;2.83;2.50;;;;;;;15.80;100.00;101738.81;5012462;28;20460;-67
2022/07/03 03:26:00;;;;;;;3.07;2.83;;;;;;;15.68;100.00;101742.38;5009878;28;20455;-67
2022/07/03 03:28:26;;;;;;;4.17;3.63;;;;;;;15.85;100.00;101738.19;5014453;28;20185;-67
2022/07/03 03:30:52;;;;;;;3.60;3.30;;;;;;;15.49;100.00;101684.56;5007775;28;20224;-68
2022/07/03 03:33:19;;;;;;;3.10;2.73;;;;;;;15.69;100.00;101739.47;5010041;28;21211;-67
2022/07/03 03:35:44;;;;;;;5.63;3.47;;;;;;;15.74;100.00;101738.84;5011842;28;20641;-67
2022/07/03 03:38:11;;;;;;;4.90;3.00;;;;;;;15.76;100.00;101734.03;5012682;28;20451;-67
2022/07/03 03:40:36;;;;;;;4.10;3.10;;;;;;;15.73;100.00;101739.88;5007766;28;20308;-67
2022/07/03 03:43:03;;;;;;;3.37;2.93;;;;;;;15.27;100.00;101656.94;5010632;28;20822;-67
2022/07/03 03:45:28;;;;;;;5.47;3.90;;;;;;;13.82;100.00;101415.63;5008849;28;20645;-67
2022/07/03 03:47:54;;;;;;;4.53;4.03;;;;;;;15.43;100.00;101656.50;5001861;28;20447;-67
2022/07/03 03:50:20;;;;;;;6.30;4.27;;;;;;;15.89;100.00;101733.19;5009893;28;20311;-67
2022/07/03 03:52:45;;;;;;;4.93;4.43;;;;;;;15.91;100.00;101722.97;5010525;28;20185;-67
2022/07/03 03:55:11;;;;;;;3.97;3.20;;;;;;;15.97;100.00;101717.56;5010740;28;20508;-67
2022/07/03 03:57:37;;;;;;;3.67;3.37;;;;;;;15.98;100.00;101719.22;5008022;28;20212;-67
2022/07/03 04:00:04;;;;;;;3.87;3.23;;;;;;;15.84;100.00;101687.84;5009293;28;20238;-67
2022/07/03 04:02:29;;;;;;;3.07;2.73;;;;;;;16.06;100.00;101720.03;5015275;28;20467;-67
2022/07/03 04:04:55;;;;;;;3.63;2.50;;;;;;;16.03;100.00;101694.22;5009497;28;20462;-67
2022/07/03 04:07:20;;;;;;;3.30;2.37;;;;;;;16.35;100.00;101711.38;5010170;28;20216;-67
2022/07/03 04:09:46;;;;;;;5.50;2.80;;;;;;;16.33;100.00;101710.75;4975411;28;20195;-67
2022/07/03 04:12:11;;;;;;;6.00;3.07;;;;;;;16.42;100.00;101717.56;5009148;28;20285;-67
2022/07/03 04:14:37;;;;;;;2.90;2.53;;;;;;;15.90;100.00;101634.75;4996489;28;20322;-67
2022/07/03 04:17:03;;;;;;;2.90;2.17;;;;;;;16.43;100.00;101719.25;5008877;28;20209;-67
2022/07/03 04:19:28;;;;;;;6.43;2.40;;;;;;;16.30;100.00;101713.06;5012892;28;20177;-67
2022/07/03 04:21:54;;;;;;;3.40;2.60;;;;;;;16.38;100.00;101719.06;5010036;28;20188;-67
2022/07/03 04:24:19;;;;;;;2.50;2.30;;;;;;;16.34;100.00;101693.44;5012021;28;20220;-67
2022/07/03 04:26:45;;;;;;;3.40;2.80;;;;;;;16.52;100.00;101721.69;5007883;28;20300;-67
2022/07/03 04:29:10;;;;;;;6.60;3.03;;;;;;;16.36;100.00;101720.31;5008480;28;20200;-67
2022/07/03 04:31:35;;;;;;;2.70;2.20;;;;;;;16.34;100.00;101704.28;4990758;28;20827;-67
2022/07/03 04:34:01;;;;;;;5.20;2.23;;;;;;;15.97;100.00;101666.16;5009680;28;20332;-67
2022/07/03 04:36:27;;;;;;;3.80;2.47;;;;;;;16.29;100.00;101693.28;5010699;28;20216;-67
2022/07/03 04:38:52;;;;;;;3.23;2.00;;;;;;;16.48;100.00;101677.97;5007921;28;20192;-67
2022/07/03 04:41:17;;;;;;;4.10;2.50;;;;;;;16.16;100.00;101607.53;5010530;28;20209;-67
2022/07/03 04:43:43;;;;;;;3.33;2.37;;;;;;;16.60;100.00;101656.44;5011050;28;20208;-67
2022/07/03 04:46:08;;;;;;;2.77;2.50;;;;;;;16.98;100.00;101729.56;5007599;28;20216;-67
2022/07/03 04:48:34;;;;;;;10.23;2.87;;;;;;;17.12;100.00;101719.44;4981321;28;20185;-67
2022/07/03 04:50:59;;;;;;;2.73;2.47;;;;;;;16.84;100.00;101671.09;5010209;28;20247;-67
2022/07/03 04:53:25;;;;;;;4.83;2.50;;;;;;;16.98;100.00;101717.88;5009291;28;20700;-67
2022/07/03 04:55:50;;;;;;;3.07;2.63;;;;;;;17.14;100.00;101733.59;5009235;28;20208;-66
2022/07/03 04:58:17;;;;;;;2.73;2.30;;;;;;;17.04;100.00;101738.66;5011586;28;20653;-68
2022/07/03 05:00:43;;;;;;;2.30;2.10;;;;;;;17.20;100.00;101726.47;5009340;28;20192;-66
2022/07/03 05:03:09;;;;;;;3.03;2.30;;;;;;;17.10;100.00;101710.72;5007344;28;20463;-67
2022/07/03 05:05:34;;;;;;;4.00;2.30;;;;;;;16.87;100.00;101660.63;5009357;28;20451;-66
2022/07/03 05:08:00;;;;;;;3.10;2.80;;;;;;;16.90;100.00;101683.75;5008506;28;20212;-67
2022/07/03 05:10:26;;;;;;;5.30;3.67;;;;;;;16.89;100.00;101687.50;5011384;28;20536;-69
2022/07/03 05:12:51;;;;;;;3.47;3.10;;;;;;;17.12;100.00;101719.44;5008199;28;20267;-68
2022/07/03 05:15:17;;;;;;;2.90;2.57;;;;;;;17.27;100.00;101727.22;5012357;28;20571;-68
2022/07/03 05:17:42;;;;;;;4.13;3.67;;;;;;;17.19;100.00;101697.72;4981879;28;20208;-68
2022/07/03 05:22:53;;;;;;;3.90;3.50;;;;;;;17.33;100.00;101732.63;5006278;28;20752;-69
2022/07/03 05:25:19;;;;;;;3.63;3.33;;;;;;;17.27;100.00;101743.50;5010405;28;20513;-68
2022/07/03 05:27:44;;;;;;;4.10;3.20;;;;;;;17.32;100.00;101719.25;5007345;28;20881;-68
2022/07/03 05:30:10;;;;;;;3.93;3.40;;;;;;;17.50;100.00;101740.16;5006724;28;20454;-68
2022/07/03 05:32:36;;;;;;;3.00;2.80;;;;;;;17.47;100.00;101737.91;5008495;28;20665;-68
2022/07/03 05:35:01;;;;;;;3.00;2.80;;;;;;;17.62;100.00;101752.78;5010204;28;20503;-69
2022/07/03 05:37:27;;;;;;;4.00;3.70;;;;;;;17.60;100.00;101748.63;5014074;28;20212;-68
2022/07/03 05:39:52;;;;;;;3.57;3.10;;;;;;;17.74;100.00;101727.63;5008788;28;20192;-69
2022/07/03 05:42:18;;;;;;;6.30;3.77;;;;;;;17.91;100.00;101733.34;5008009;28;20266;-68
2022/07/03 05:44:43;;;;;;;3.30;3.00;;;;;;;17.84;100.00;101717.09;5007234;28;20674;-68
2022/07/03 05:47:08;;;;;;;3.77;3.20;;;;;;;17.70;100.00;101683.81;5006587;28;20213;-69
2022/07/03 05:49:34;;;;;;;4.53;3.47;;;;;;;18.04;100.00;101727.75;5004409;28;20197;-68
2022/07/03 05:51:59;;;;;;;4.90;3.23;;;;;;;18.18;100.00;101729.25;5005319;28;20192;-69
2022/07/03 05:54:25;;;;;;;5.70;3.40;;;;;;;17.73;100.00;101641.84;5009077;28;20229;-68
2022/07/03 05:56:50;;;;;;;4.80;3.00;;;;;;;18.28;100.00;101729.53;5009367;28;20212;-68
2022/07/03 05:59:15;;;;;;;5.00;3.63;;;;;;;18.40;100.00;101726.03;5009321;28;20193;-69
2022/07/03 06:01:41;;;;;;;5.80;2.90;;;;;;;18.22;100.00;101710.59;5009172;28;20204;-68
2022/07/03 06:04:06;;;;;;;2.80;2.60;;;;;;;18.49;100.00;101720.06;5008561;28;20209;-69
2022/07/03 06:06:32;;;;;;;2.97;2.50;;;;;;;18.45;100.00;101723.47;5005513;28;20244;-68
2022/07/03 06:08:57;;;;;;;3.03;2.40;;;;;;;18.29;100.00;101685.03;5008756;28;20193;-69
2022/07/03 06:11:22;;;;;;;3.40;2.47;;;;;;;18.16;100.00;101663.47;5006758;28;20196;-69
2022/07/03 06:13:48;;;;;;;3.50;2.50;;;;;;;18.60;100.00;101704.03;5011088;28;20285;-68
2022/07/03 06:16:13;;;;;;;2.47;2.10;;;;;;;18.79;100.00;101704.84;5007359;28;20217;-68
2022/07/03 06:18:39;;;;;;;3.20;2.20;;;;;;;18.82;100.00;101701.66;5014433;28;20192;-68
2022/07/03 06:21:04;;;;;;;2.90;1.90;;;;;;;18.28;100.00;101614.63;5009195;28;20215;-68
2022/07/03 06:23:29;;;;;;;5.30;2.80;;;;;;;18.90;100.00;101674.97;5013000;22;20764;-70
2022/07/03 06:25:55;;;;;;;3.43;2.53;;;;;;;19.16;100.00;101687.28;4996813;28;20193;-71
2022/07/03 06:28:20;;;;;;;3.10;2.10;;;;;;;19.31;100.00;101699.59;4996219;28;20189;-70
2022/07/03 06:30:45;;;;;;;2.87;1.80;;;;;;;19.41;100.00;101700.66;4999415;28;20197;-71
2022/07/03 06:33:11;;;;;;;2.63;1.80;;;;;;;19.71;100.00;101702.44;4999860;28;20305;-71
2022/07/03 06:35:36;;;;;;;3.43;1.93;;;;;;;19.63;100.00;101676.38;4997522;28;20193;-71
2022/07/03 06:38:03;;;;;;;3.00;1.80;;;;;;;19.73;100.00;101685.84;5005152;28;20253;-72
2022/07/03 06:40:29;;;;;;;1.90;1.37;;;;;;;19.69;100.00;101668.38;5004613;28;20594;-72
2022/07/03 06:42:54;;;;;;;2.67;1.60;;;;;;;19.86;100.00;101696.50;5005668;28;20463;-72
2022/07/03 06:45:19;;;;;;;2.50;1.33;;;;;;;19.83;100.00;101686.09;5004731;28;20276;-72
2022/07/03 06:47:45;;;;;;;4.53;1.60;;;;;;;19.89;100.00;101668.78;5000499;28;20202;-74
2022/07/03 06:50:11;;;;;;;1.30;1.20;;;;;;;20.20;100.00;101702.09;4983702;28;20196;-73
2022/07/03 06:52:36;;;;;;;1.57;1.00;;;;;;;20.15;100.00;101697.38;4980304;28;20263;-70
2022/07/03 06:55:01;;;;;;;2.80;0.80;;;;;;;19.92;100.00;101648.44;4996270;28;20195;-71
2022/07/03 06:57:27;;;;;;;1.00;0.80;;;;;;;20.21;100.00;101699.13;4987834;28;20201;-71
2022/07/03 06:59:52;;;;;;;2.40;1.20;;;;;;;20.04;100.00;101662.81;4997164;28;20195;-71
2022/07/03 07:02:18;;;;;;;0.90;0.80;;;;;;;20.08;100.00;101648.50;4997909;28;20181;-71
2022/07/03 07:04:43;;;;;;;1.93;0.73;;;;;;;20.25;100.00;101680.38;5003334;28;20271;-71
2022/07/03 07:07:08;;;;;;;2.23;1.00;;;;;;;20.43;100.00;101699.28;5003191;28;20237;-69
2022/07/03 07:09:34;;;;;;;3.53;1.10;;;;;;;20.31;100.00;101707.50;5003925;28;20186;-69
2022/07/03 07:11:59;;;;;;;1.93;0.97;;;;;;;20.14;100.00;101692.19;5000003;28;20193;-70
2022/07/03 07:14:25;;;;;;;3.77;1.13;;;;;;;20.13;100.00;101709.56;5002663;28;20618;-71
2022/07/03 07:16:50;;;;;;;2.90;1.03;;;;;;;20.19;100.00;101711.31;4998470;28;20189;-73
2022/07/03 07:19:16;;;;;;;2.03;1.03;;;;;;;20.06;100.00;101707.00;5003542;28;20232;-73
2022/07/03 07:21:41;;;;;;;2.30;1.17;;;;;;;19.92;100.00;101703.69;5004453;28;20185;-74
2022/07/03 07:24:07;;;;;;;1.40;0.90;;;;;;;19.83;100.00;101673.31;5005766;28;20224;-73
2022/07/03 07:26:32;;;;;;;3.77;1.40;;;;;;;20.25;100.00;101710.34;5004020;28;20193;-73
2022/07/03 07:28:57;;;;;;;1.80;1.03;;;;;;;19.97;100.00;101692.94;5001287;28;20193;-71
2022/07/03 07:31:23;;;;;;;2.10;1.00;;;;;;;20.37;100.00;101722.06;5001332;28;20197;-72
2022/07/03 07:33:48;;;;;;;2.50;0.87;;;;;;;20.42;100.00;101722.13;5004859;28;20243;-73
2022/07/03 07:36:14;;;;;;;2.47;1.00;;;;;;;20.14;100.00;101694.91;5004793;28;20275;-73
2022/07/03 07:38:40;;;;;;;2.87;1.30;;;;;;;20.36;100.00;101723.09;5005797;28;20185;-73
2022/07/03 07:41:05;;;;;;;2.80;1.10;;;;;;;20.43;100.00;101726.53;5004262;28;20188;-74
2022/07/03 07:43:30;;;;;;;3.30;1.10;;;;;;;20.31;100.00;101740.19;5005296;28;20209;-72
2022/07/03 07:45:56;;;;;;;1.77;1.40;;;;;;;20.22;100.00;101719.00;5001866;28;20193;-73
2022/07/03 07:48:21;;;;;;;3.50;1.40;;;;;;;20.41;100.00;101745.00;4982164;28;20197;-75
2022/07/03 07:50:47;;;;;;;1.43;0.90;;;;;;;20.37;100.00;101732.13;4983140;28;20188;-71
2022/07/03 07:53:12;;;;;;;2.83;1.03;;;;;;;20.30;100.00;101734.97;5000279;28;20651;-72
2022/07/03 07:55:37;;;;;;;0.80;0.80;;;;;;;20.36;100.00;101706.75;4997945;28;20188;-71
2022/07/03 07:58:03;;;;;;;1.27;0.77;;;;;;;20.44;100.00;101730.91;4998378;28;20185;-71
2022/07/03 08:00:28;;;;;;;1.83;0.90;;;;;;;20.52;100.00;101724.25;5002199;28;20208;-70
2022/07/03 08:05:38;;;;;;;2.80;1.00;;;;;;;20.66;100.00;101744.72;4999518;28;20270;-74
2022/07/03 08:08:08;;;;;;;1.93;0.83;;;;;;;20.74;100.00;101740.75;5000027;28;20539;-73
2022/07/03 08:10:35;;;;;;;1.63;1.13;;;;;;;20.47;100.00;101730.41;4997956;28;20184;-70
2022/07/03 08:13:01;;;;;;;1.20;0.87;;;;;;;20.38;100.00;101706.53;4998441;28;20462;-73
2022/07/03 08:15:27;;;;;;;2.40;1.10;;;;;;;20.52;100.00;101718.78;4995609;28;20444;-72
2022/07/03 08:17:52;;;;;;;2.83;0.93;;;;;;;20.60;100.00;101728.50;4985886;28;20287;-71
2022/07/03 08:20:17;;;;;;;2.27;1.00;;;;;;;20.64;100.00;101718.78;5000673;28;20185;-71
2022/07/03 08:22:43;;;;;;;1.53;0.90;;;;;;;20.59;100.00;101711.31;4993890;28;20663;-71
2022/07/03 08:25:08;;;;;;;1.80;0.97;;;;;;;20.49;100.00;101703.75;4997780;28;20188;-74
2022/07/03 08:27:34;;;;;;;2.87;0.80;;;;;;;20.32;100.00;101656.56;4997954;28;20307;-72
2022/07/03 08:29:59;;;;;;;0.93;0.80;;;;;;;20.90;100.00;101739.97;4997929;28;20193;-69
2022/07/03 08:32:24;;;;;;;1.73;0.93;;;;;;;20.89;100.00;101742.94;5001146;28;20213;-71
2022/07/03 08:34:50;;;;;;;3.20;0.83;;;;;;;20.70;100.00;101691.34;5000698;28;20224;-73
2022/07/03 08:37:15;;;;;;;1.90;0.80;;;;;;;20.27;100.00;101653.75;4985421;28;20204;-72
2022/07/03 08:39:40;;;;;;;3.87;0.90;;;;;;;20.83;100.00;101733.84;4986011;28;20192;-72
2022/07/03 08:42:07;;;;;;;1.37;0.83;;;;;;;20.91;100.00;101738.06;4996779;28;20192;-73
2022/07/03 08:44:35;;;;;;;2.10;0.73;;;;;;;20.93;100.00;101736.72;5002080;28;20213;-73
2022/07/03 08:47:03;;;;;;;1.63;0.80;;;;;;;20.79;100.00;101708.13;5002806;28;20448;-73
2022/07/03 08:49:29;;;;;;;1.87;0.90;;;;;;;20.89;100.00;101729.31;5003253;28;20448;-73
2022/07/03 08:51:55;;;;;;;2.73;0.90;;;;;;;20.73;100.00;101722.75;5002268;28;20451;-69
2022/07/03 08:54:20;;;;;;;1.43;0.70;;;;;;;20.85;100.00;101731.69;5004093;28;20197;-71
2022/07/03 08:56:46;;;;;;;1.53;0.80;;;;;;;20.98;100.00;101738.75;4997578;28;20474;-71
2022/07/03 08:59:13;;;;;;;1.67;0.70;;;;;;;21.02;100.00;101688.06;4987917;28;20238;-71
2022/07/03 09:01:41;;;;;;;1.67;0.90;;;;;;;20.90;100.00;101706.41;4995499;28;20448;-73
2022/07/03 09:04:12;;;;;;;1.97;0.80;;;;;;;21.28;100.00;101722.03;4997275;28;20917;-72
2022/07/03 09:06:39;;;;;;;1.37;0.70;;;;;;;21.41;100.00;101727.19;4994675;28;20435;-73
2022/07/03 09:09:08;;;;;;;1.43;0.83;;;;;;;21.23;100.00;101727.41;4992966;28;20452;-72
2022/07/03 09:11:33;;;;;;;1.57;0.77;;;;;;;21.09;100.00;101724.19;4998136;28;20485;-72
2022/07/03 09:13:59;;;;;;;1.87;0.97;;;;;;;21.13;100.00;101699.97;4999867;28;20956;-72
2022/07/03 09:16:24;;;;;;;1.60;0.90;;;;;;;21.20;100.00;101727.91;5000332;28;20185;-72
2022/07/03 09:18:49;;;;;;;1.67;0.93;;;;;;;21.27;100.00;101723.13;4999994;28;20243;-72
2022/07/03 09:21:16;;;;;;;2.00;0.93;;;;;;;21.07;100.00;101692.78;5002694;28;20650;-73
2022/07/03 09:23:43;;;;;;;2.00;1.10;;;;;;;21.32;100.00;101734.13;5002108;28;20225;-73
2022/07/03 09:26:14;;;;;;;1.43;0.90;;;;;;;21.52;100.00;101740.97;5002559;28;20479;-74
2022/07/03 09:28:47;;;;;;;3.53;1.37;;;;;;;21.22;100.00;101734.75;5002235;28;20432;-72
2022/07/03 09:31:22;;;;;;;2.70;1.20;;;;;;;20.80;100.00;101673.50;5000085;28;20889;-72
2022/07/03 09:33:55;;;;;;;2.10;0.90;;;;;;;21.47;100.00;101747.19;4999656;28;20455;-71
2022/07/03 09:36:22;;;;;;;3.10;1.17;;;;;;;21.24;100.00;101696.34;5004172;28;20427;-73
2022/07/03 09:38:48;;;;;;;2.73;1.00;;;;;;;21.21;100.00;101748.66;5003421;28;20804;-73
2022/07/03 09:41:13;;;;;;;1.60;1.07;;;;;;;20.95;100.00;101712.78;4996968;28;20444;-72
2022/07/03 09:43:43;;;;;;;2.13;1.17;;;;;;;21.51;100.00;101747.53;5003800;28;20689;-73
2022/07/03 09:46:09;;;;;;;1.03;0.60;;;;;;;21.43;100.00;101755.03;5003964;28;20190;-72
2022/07/03 09:48:37;;;;;;;2.03;1.03;;;;;;;21.37;100.00;101742.41;5003167;28;20439;-72
2022/07/03 09:51:18;;;;;;;2.00;1.10;;;;;;;21.13;100.00;101722.63;5000168;28;20467;-72
2022/07/03 09:53:45;;;;;;;1.20;1.10;;;;;;;21.16;100.00;101735.75;5003043;28;20432;-74
2022/07/03 09:56:10;;;;;;;3.10;1.30;;;;;;;20.83;100.00;101728.41;5002162;28;20543;-75
2022/07/03 09:58:36;;;;;;;1.57;1.17;;;;;;;20.73;100.00;101717.28;5004374;28;20518;-75
2022/07/03 10:01:18;;;;;;;1.57;1.27;;;;;;;20.80;100.00;101758.88;5002752;28;20216;-75
2022/07/03 10:03:43;;;;;;;2.50;1.10;;;;;;;20.68;100.00;101771.72;5004505;28;20209;-75
2022/07/03 10:06:09;;;;;;;1.60;1.17;;;;;;;19.94;100.00;101701.56;5007046;28;21057;-75
2022/07/03 10:08:36;;;;;;;1.63;1.03;;;;;;;20.62;100.00;101778.97;5005346;28;20664;-75
2022/07/03 10:11:05;;;;;;;2.20;1.10;;;;;;;20.23;100.00;101723.41;4995924;28;20684;-77
2022/07/03 10:13:32;;;;;;;1.47;1.00;;;;;;;20.46;100.00;101766.09;4986281;28;20476;-75
2022/07/03 10:15:57;;;;;;;1.30;0.93;;;;;;;20.54;100.00;101758.41;5001134;28;20968;-76
2022/07/03 10:18:29;;;;;;;1.17;1.00;;;;;;;20.66;100.00;101774.69;5000022;28;20479;-75
2022/07/03 10:20:58;;;;;;;2.07;1.10;;;;;;;20.73;100.00;101771.81;5000491;28;20676;-75
2022/07/03 10:23:24;;;;;;;1.30;0.90;;;;;;;20.95;100.00;101741.97;5005318;28;20627;-74
2022/07/03 10:25:49;;;;;;;1.27;1.00;;;;;;;21.11;100.00;101773.84;5004506;28;20514;-74
2022/07/03 10:28:18;;;;;;;1.63;1.37;;;;;;;20.91;100.00;101746.22;5006511;28;20907;-75
2022/07/03 10:30:45;;;;;;;1.40;1.30;;;;;;;21.08;100.00;101757.97;4990189;28;20266;-74
2022/07/03 10:33:11;;;;;;;3.00;1.50;;;;;;;21.18;100.00;101768.25;5005448;28;20452;-76
2022/07/03 10:35:40;;;;;;;3.50;1.40;;;;;;;21.37;100.00;101772.41;5006300;28;20439;-75
2022/07/03 10:38:27;;;;;;;3.73;1.23;;;;;;;21.31;100.00;101765.19;5005869;28;20276;-75
2022/07/03 10:46:37;;;;;;;2.60;1.23;;;;;;;21.54;100.00;101749.75;5007142;28;20980;-78
2022/07/03 10:49:10;;;;;;;3.07;1.57;;;;;;;21.54;100.00;101752.47;5004803;28;20451;-74
2022/07/03 10:51:45;;;;;;;3.40;1.20;;;;;;;21.64;100.00;101758.94;5005170;28;20181;-79
2022/07/03 10:54:20;;;;;;;1.63;0.90;;;;;;;21.78;100.00;101751.19;5005770;28;20952;-75
2022/07/03 10:57:16;;;;;;;2.77;1.40;;;;;;;21.94;100.00;101751.41;4987309;28;20447;-74
2022/07/03 10:59:44;;;;;;;2.77;1.40;;;;;;;22.14;100.00;101748.13;4982478;28;20459;-76
2022/07/03 11:02:40;;;;;;;1.23;0.87;;;;;;;22.14;100.00;101759.88;5004819;28;20437;-74
2022/07/03 11:05:07;;;;;;;1.70;0.87;;;;;;;22.12;100.00;101745.63;5005115;28;20535;-74
2022/07/03 11:07:49;;;;;;;0.93;0.93;;;;;;;21.72;100.00;101694.03;5004758;28;20571;-75
2022/07/03 11:10:15;;;;;;;5.20;0.80;;;;;;;22.19;100.00;101742.72;5006978;28;20466;-75
2022/07/03 11:12:55;;;;;;;1.23;0.70;;;;;;;22.58;100.00;101732.53;5003906;28;20472;-74
2022/07/03 11:15:25;;;;;;;1.13;0.90;;;;;;;22.37;100.00;101706.06;5004533;28;20177;-74
2022/07/03 11:18:06;;;;;;;2.67;0.90;;;;;;;22.64;100.00;101725.19;4985920;28;20444;-75
2022/07/03 11:20:33;;;;;;;1.03;0.70;;;;;;;22.87;100.00;101724.06;5005660;28;20428;-75
2022/07/03 11:23:13;;;;;;;2.73;0.90;;;;;;;22.53;100.00;101724.25;5005386;28;20510;-81
2022/07/03 11:25:45;;;;;;;1.57;0.80;;;;;;;22.49;100.00;101734.06;5005055;28;20428;-75
2022/07/03 11:28:36;;;;;;;1.87;0.80;;;;;;;22.78;100.00;101712.75;5004842;28;20432;-76
2022/07/03 11:31:08;;;;;;;2.83;0.80;;;;;;;22.31;100.00;101738.81;4969300;28;20807;-75
2022/07/03 11:33:44;;;;;;;1.60;0.90;;;;;;;22.52;100.00;101725.34;5002327;28;20455;-75
2022/07/03 11:36:30;;;;;;;0.97;0.67;;;;;;;22.81;100.00;101719.63;5004057;28;20890;-75